createdAt,value
2022-11-29T00:02:55.266Z,23.70
2022-11-29T00:22:54.843Z,17.80
2022-11-29T00:42:54.559Z,23.20
2022-11-29T01:02:54.285Z,24.50
2022-11-29T01:22:54.026Z,25.60
2022-11-29T01:42:53.761Z,27.80
2022-11-29T02:02:53.537Z,26.40
2022-11-29T02:22:53.192Z,19.90
2022-11-29T02:42:56.763Z,20.10
2022-11-29T03:02:52.688Z,20.80
2022-11-29T03:22:52.420Z,24.20
2022-11-29T03:42:52.085Z,29.40
2022-11-29T04:02:51.853Z,29.30
2022-11-29T04:22:51.534Z,28.40
2022-11-29T04:42:51.270Z,24.20
2022-11-29T05:02:51.021Z,23.00
2022-11-29T05:22:50.771Z,31.10
2022-11-29T05:42:50.476Z,31.60
2022-11-29T06:02:50.256Z,31.30
2022-11-29T06:22:49.963Z,47.20
2022-11-29T06:42:49.680Z,32.90
2022-11-29T07:02:49.419Z,29.20
2022-11-29T07:22:49.145Z,31.80
2022-11-29T07:42:48.899Z,34.80
2022-11-29T08:02:48.622Z,41.70
2022-11-29T08:22:48.348Z,42.50
2022-11-29T08:42:48.078Z,38.50
2022-11-29T09:02:47.833Z,43.70
2022-11-29T09:22:47.522Z,32.90
2022-11-29T09:42:47.288Z,45.10
2022-11-29T10:02:47.010Z,48.50
2022-11-29T10:22:46.716Z,49.50
2022-11-29T10:42:46.439Z,44.10
2022-11-29T11:02:46.130Z,51.80
2022-11-29T11:22:45.848Z,43.00
2022-11-29T11:42:45.610Z,52.20
2022-11-29T12:02:45.401Z,42.10
2022-11-29T12:22:48.256Z,40.70
2022-11-29T12:42:45.762Z,35.30
2022-11-29T13:02:44.517Z,45.80
2022-11-29T13:22:44.179Z,42.10
2022-11-29T13:42:43.877Z,49.80
2022-11-29T14:02:43.664Z,47.10
2022-11-29T14:22:43.323Z,51.70
2022-11-29T14:42:43.041Z,62.00
2022-11-29T15:02:42.800Z,47.00
2022-11-29T15:22:42.482Z,56.80
2022-11-29T15:42:42.407Z,62.00
2022-11-29T16:02:41.911Z,62.60
2022-11-29T16:22:41.689Z,51.60
2022-11-29T16:42:41.352Z,52.90
2022-11-29T17:02:41.127Z,77.40
2022-11-29T17:22:40.852Z,69.10
2022-11-29T17:42:40.505Z,69.50
2022-11-29T18:02:40.230Z,55.90
2022-11-29T18:22:39.948Z,68.20
2022-11-29T18:42:39.643Z,56.00
2022-11-29T19:02:39.425Z,72.20
2022-11-29T19:22:39.094Z,62.00
2022-11-29T19:42:38.850Z,66.20
2022-11-29T20:02:38.559Z,53.10
2022-11-29T20:22:38.254Z,46.70
2022-11-29T20:42:37.949Z,69.60
2022-11-29T21:02:37.684Z,45.30
2022-11-29T21:22:37.407Z,70.30
2022-11-29T21:42:37.130Z,62.80
2022-11-29T22:02:36.980Z,57.40
2022-11-29T22:22:36.578Z,80.60
2022-11-29T22:42:36.305Z,57.40
2022-11-29T23:02:36.115Z,68.30
2022-11-29T23:22:35.785Z,59.30
2022-11-29T23:42:35.496Z,60.20
